Batesville, Arkansas
Current Conditions -  °F | °C
As of 4:55 PM on Saturday 20 Dec 2014 (Local Time) from KBVX Reporting Station
Scattered Clouds Scattered Clouds  
Wind Chill: 43°   Ceiling: Unl
Heat Index: 43°   Visibility: 9mi
Dew Point: 34°   Wind: 3mph
Humidity: 70%   Direction: 110°ESE
Pressure: 30.23"   Gusts: NA
Location:  35.77°N, 91.65°W
Report Text: KBVX 202255Z AUTO 11003KT 9SM SCT030 06/01 A3023 RMK AO1
Loading
Personal Weather Stations






























Interactive Weather Map New forecast layout! Learn more

10-Day Weather Forecast

Advertisements
Track Severe Weather on mobile